Time;durP1;ratioP1;P1;durP2;ratioP2;P2;SDS_P1;SDS_P2;PMS_P1;PMS_P2;Temp;Humidity;BMP_temperature;BMP_pressure;BME280_temperature;BME280_humidity;BME280_pressure;Samples;Min_cycle;Max_cycle;Signal;HPM_P1;HPM_P2
2021/10/09 00:01:29;;;;;;;2.67;2.47;;;11.80;99.90;;;;;;4877270;29;20632;-83
2021/10/09 00:03:57;;;;;;;2.50;2.30;;;11.80;99.90;;;;;;4878132;29;20566;-82
2021/10/09 00:06:24;;;;;;;2.88;2.67;;;11.80;99.90;;;;;;4878298;29;20455;-82
2021/10/09 00:08:52;;;;;;;2.70;2.50;;;11.70;99.90;;;;;;4861181;29;20052;-83
2021/10/09 00:11:35;;;;;;;3.15;2.95;;;11.80;99.90;;;;;;4877850;29;20052;-84
2021/10/09 00:14:07;;;;;;;2.60;2.40;;;11.70;99.90;;;;;;4860919;29;20513;-81
2021/10/09 00:16:38;;;;;;;2.70;2.50;;;11.60;99.90;;;;;;4861932;29;20109;-84
2021/10/09 00:19:25;;;;;;;2.50;2.30;;;11.50;99.90;;;;;;4824045;29;20193;-83
2021/10/09 00:22:05;;;;;;;2.63;2.42;;;11.40;99.90;;;;;;4840301;29;20077;-84
2021/10/09 00:24:32;;;;;;;4.97;4.57;;;11.40;99.90;;;;;;4839530;29;20106;-83
2021/10/09 00:27:09;;;;;;;2.70;2.50;;;11.40;99.90;;;;;;4840222;29;20126;-82
2021/10/09 00:29:36;;;;;;;2.55;2.35;;;11.30;99.90;;;;;;4836648;29;20060;-81
2021/10/09 00:32:04;;;;;;;2.70;2.50;;;11.40;99.90;;;;;;4820625;29;20392;-82
2021/10/09 00:34:31;;;;;;;2.70;2.50;;;11.40;99.90;;;;;;4829049;29;20081;-83
2021/10/09 00:36:58;;;;;;;2.70;2.50;;;11.20;99.90;;;;;;4856987;29;20055;-82
2021/10/09 00:39:26;;;;;;;2.70;2.50;;;11.00;99.90;;;;;;4857159;29;20088;-85
2021/10/09 00:41:53;;;;;;;2.70;2.50;;;10.80;99.90;;;;;;4857068;29;20038;-82
2021/10/09 00:44:20;;;;;;;2.70;2.50;;;10.80;99.90;;;;;;4856845;29;20066;-83
2021/10/09 00:46:48;;;;;;;2.80;2.60;;;10.80;99.90;;;;;;4857048;29;20045;-86
2021/10/09 00:49:15;;;;;;;2.80;2.60;;;11.00;99.90;;;;;;4846218;29;20417;-86
2021/10/09 00:51:44;;;;;;;2.90;2.70;;;11.00;99.90;;;;;;4895034;29;20390;-86
2021/10/09 00:54:13;;;;;;;2.80;2.60;;;10.90;99.90;;;;;;4879209;29;20054;-83
2021/10/09 00:56:43;;;;;;;2.90;2.70;;;10.60;99.90;;;;;;4895157;29;20045;-85
2021/10/09 00:59:10;;;;;;;2.80;2.60;;;10.70;99.90;;;;;;4895947;29;20055;-86
2021/10/09 01:01:39;;;;;;;2.72;2.53;;;10.50;99.90;;;;;;4880791;29;20052;-85
2021/10/09 01:04:08;;;;;;;2.92;2.72;;;10.50;99.90;;;;;;4895469;29;20048;-83
2021/10/09 01:06:35;;;;;;;2.80;2.60;;;10.60;99.90;;;;;;4868062;29;20071;-83
2021/10/09 01:09:04;;;;;;;2.92;2.72;;;10.60;99.90;;;;;;4861924;29;20053;-84
2021/10/09 01:11:31;;;;;;;3.00;2.80;;;10.60;99.90;;;;;;4878477;29;20443;-82
2021/10/09 01:13:59;;;;;;;2.90;2.70;;;10.70;99.90;;;;;;4861788;29;20083;-86
2021/10/09 01:16:28;;;;;;;3.03;2.83;;;10.80;99.90;;;;;;4862452;29;20069;-85
2021/10/09 01:18:58;;;;;;;2.90;2.70;;;10.90;99.90;;;;;;4861355;29;20409;-83
2021/10/09 01:21:37;;;;;;;2.85;2.65;;;10.70;99.90;;;;;;4877591;29;20401;-84
2021/10/09 01:24:04;;;;;;;3.00;2.80;;;10.60;99.90;;;;;;4861785;29;20057;-83
2021/10/09 01:26:34;;;;;;;2.70;2.50;;;10.70;99.90;;;;;;4863564;29;20497;-84
2021/10/09 01:29:13;;;;;;;2.80;2.60;;;10.80;99.90;;;;;;4895828;29;20465;-83
2021/10/09 01:31:40;;;;;;;2.80;2.60;;;10.60;99.90;;;;;;4883618;29;20127;-85
2021/10/09 01:34:08;;;;;;;2.80;2.60;;;10.50;99.90;;;;;;4883043;29;20044;-84
2021/10/09 01:36:45;;;;;;;2.70;2.50;;;10.60;99.90;;;;;;4879565;29;20049;-82
2021/10/09 01:39:15;;;;;;;2.90;2.70;;;10.50;99.90;;;;;;4864542;29;20502;-83
2021/10/09 01:41:46;;;;;;;2.88;2.67;;;10.60;99.90;;;;;;4880963;29;20055;-83
2021/10/09 01:44:16;;;;;;;2.90;2.70;;;10.50;99.90;;;;;;4879529;29;20057;-84
2021/10/09 01:46:44;;;;;;;2.90;2.70;;;10.70;99.90;;;;;;4879789;29;20049;-83
2021/10/09 01:49:11;;;;;;;5.45;4.45;;;10.70;99.90;;;;;;4879296;29;20469;-84
2021/10/09 01:51:39;;;;;;;2.80;2.60;;;10.70;99.90;;;;;;4879556;29;20136;-81
2021/10/09 01:54:06;;;;;;;2.88;2.67;;;10.60;99.90;;;;;;4879421;29;20053;-85
2021/10/09 01:59:29;;;;;;;2.85;2.65;;;10.50;99.90;;;;;;5036312;23;20052;-80
2021/10/09 02:01:57;;;;;;;3.05;2.85;;;10.50;99.90;;;;;;4898663;29;20041;-82
2021/10/09 02:04:26;;;;;;;2.90;2.70;;;10.40;99.90;;;;;;4900464;29;20554;-84
2021/10/09 02:06:53;;;;;;;2.80;2.60;;;10.60;99.90;;;;;;4883680;29;20134;-81
2021/10/09 02:09:20;;;;;;;2.80;2.60;;;10.70;99.90;;;;;;4894107;29;20044;-83
2021/10/09 02:11:49;;;;;;;3.00;2.80;;;10.70;99.90;;;;;;4886757;29;20040;-81
2021/10/09 02:14:23;;;;;;;2.92;2.72;;;10.60;99.90;;;;;;4902117;29;20048;-82
2021/10/09 02:27:20;;;;;;;2.90;2.70;;;10.50;99.90;;;;;;4900998;29;20040;-83
2021/10/09 02:29:49;;;;;;;3.00;2.80;;;10.50;99.90;;;;;;4902093;29;20040;-84
2021/10/09 02:32:16;;;;;;;3.00;2.80;;;10.50;99.90;;;;;;4900663;29;20048;-83
2021/10/09 02:34:44;;;;;;;2.70;2.50;;;10.70;99.90;;;;;;4920175;29;20044;-83
2021/10/09 02:37:11;;;;;;;2.80;2.60;;;10.50;99.90;;;;;;4936151;29;20402;-83
2021/10/09 02:39:47;;;;;;;2.80;2.60;;;10.50;99.90;;;;;;4919137;29;20075;-82
2021/10/09 02:42:20;;;;;;;2.90;2.70;;;10.60;99.90;;;;;;4903953;29;20136;-82
2021/10/09 02:44:48;;;;;;;2.90;2.70;;;10.50;99.90;;;;;;4919604;29;20119;-82
2021/10/09 02:47:15;;;;;;;2.90;2.70;;;10.50;99.90;;;;;;4919843;29;20036;-83
2021/10/09 02:49:42;;;;;;;2.90;2.70;;;10.50;99.90;;;;;;4905026;29;20050;-83
2021/10/09 02:52:09;;;;;;;2.90;2.70;;;10.50;99.90;;;;;;4936478;29;20146;-83
2021/10/09 02:54:37;;;;;;;2.90;2.70;;;10.40;99.90;;;;;;4920337;29;20039;-81
2021/10/09 02:57:05;;;;;;;2.90;2.70;;;10.30;99.90;;;;;;4935948;29;20134;-82
2021/10/09 02:59:32;;;;;;;2.90;2.70;;;10.30;99.90;;;;;;4937047;29;20043;-84
2021/10/09 03:02:08;;;;;;;3.00;2.80;;;10.30;99.90;;;;;;4935202;29;20071;-83
2021/10/09 03:04:40;;;;;;;2.90;2.70;;;10.10;99.90;;;;;;4903397;29;20040;-81
2021/10/09 03:07:07;;;;;;;3.30;3.00;;;10.10;99.90;;;;;;4918792;29;20051;-81
2021/10/09 03:09:35;;;;;;;2.90;2.70;;;10.00;99.90;;;;;;4934434;29;20040;-83
2021/10/09 03:12:02;;;;;;;3.00;2.80;;;9.90;99.90;;;;;;4935055;29;20049;-83
2021/10/09 03:14:29;;;;;;;2.90;2.70;;;9.90;99.90;;;;;;4934386;29;20046;-83
2021/10/09 03:16:57;;;;;;;3.00;2.80;;;9.90;99.90;;;;;;4934427;29;20055;-82
2021/10/09 03:19:24;;;;;;;2.90;2.70;;;10.00;99.90;;;;;;4918705;29;20046;-80
2021/10/09 03:21:51;;;;;;;3.08;2.88;;;10.00;99.90;;;;;;4934343;29;20410;-81
2021/10/09 03:24:19;;;;;;;3.13;2.92;;;10.00;99.90;;;;;;4934667;29;20055;-83
2021/10/09 03:26:46;;;;;;;3.00;2.80;;;9.90;99.90;;;;;;4934160;29;20043;-82
2021/10/09 03:29:13;;;;;;;3.00;2.80;;;9.90;99.90;;;;;;4918316;29;20063;-82
2021/10/09 03:31:44;;;;;;;3.10;2.90;;;9.80;99.90;;;;;;4934768;29;20043;-81
2021/10/09 03:34:35;;;;;;;2.95;2.75;;;9.80;99.90;;;;;;4936540;29;20052;-81
2021/10/09 03:37:05;;;;;;;3.17;2.97;;;9.70;99.90;;;;;;4881675;29;20374;-83
2021/10/09 03:39:37;;;;;;;3.10;2.90;;;9.80;99.90;;;;;;4898729;29;20128;-87
2021/10/09 03:42:18;;;;;;;3.05;2.85;;;10.00;99.90;;;;;;4883613;29;20484;-83
2021/10/09 03:44:54;;;;;;;3.10;2.90;;;10.10;99.90;;;;;;4898476;29;20425;-83
2021/10/09 03:47:26;;;;;;;2.92;2.72;;;10.20;99.90;;;;;;4881088;29;20052;-85
2021/10/09 03:49:56;;;;;;;3.00;2.80;;;10.10;99.90;;;;;;4896900;29;20386;-84
2021/10/09 03:52:39;;;;;;;3.00;2.80;;;10.30;99.90;;;;;;4880340;29;20076;-84
2021/10/09 03:55:14;;;;;;;3.00;2.80;;;10.10;99.90;;;;;;4859515;29;20409;-83
2021/10/09 03:57:43;;;;;;;2.90;2.70;;;9.90;99.90;;;;;;4865333;29;20397;-84
2021/10/09 04:00:36;;;;;;;2.97;2.78;;;9.90;99.90;;;;;;4865229;29;20048;-83
2021/10/09 04:03:03;;;;;;;3.00;2.80;;;10.20;99.90;;;;;;4880293;29;20060;-83
2021/10/09 04:05:31;;;;;;;2.85;2.65;;;10.30;99.90;;;;;;4880222;29;20092;-82
2021/10/09 04:08:04;;;;;;;2.85;2.65;;;10.20;99.90;;;;;;4896663;29;20054;-84
2021/10/09 04:10:37;;;;;;;3.00;2.80;;;10.30;99.90;;;;;;4897266;29;20051;-82
2021/10/09 04:13:05;;;;;;;3.00;2.80;;;10.00;99.90;;;;;;4864817;29;20052;-83
2021/10/09 04:15:32;;;;;;;3.00;2.80;;;10.20;99.90;;;;;;4880410;29;20036;-83
2021/10/09 04:18:00;;;;;;;3.10;2.90;;;10.20;99.90;;;;;;4896559;29;20508;-83
2021/10/09 04:20:28;;;;;;;3.20;3.00;;;10.20;99.90;;;;;;4865715;29;20051;-83
2021/10/09 04:22:55;;;;;;;3.00;2.80;;;9.90;99.90;;;;;;4880805;29;20051;-83
2021/10/09 04:25:22;;;;;;;2.90;2.70;;;9.80;99.90;;;;;;4881550;29;20049;-84
2021/10/09 04:27:50;;;;;;;2.90;2.70;;;9.70;99.90;;;;;;4896334;29;20137;-85
2021/10/09 04:30:17;;;;;;;3.05;2.85;;;9.80;99.90;;;;;;4881152;29;20037;-81
2021/10/09 04:32:44;;;;;;;2.90;2.70;;;9.80;99.90;;;;;;4880496;29;20458;-83
2021/10/09 04:35:12;;;;;;;3.00;2.80;;;9.80;99.90;;;;;;4886175;29;20138;-83
2021/10/09 04:37:39;;;;;;;3.10;2.90;;;9.70;99.90;;;;;;4933957;29;20565;-82
2021/10/09 04:40:07;;;;;;;3.00;2.80;;;9.90;99.90;;;;;;4934523;29;20054;-82
2021/10/09 04:42:34;;;;;;;3.10;2.90;;;9.90;99.90;;;;;;4916846;29;20054;-82
2021/10/09 04:45:02;;;;;;;3.00;2.80;;;9.90;99.90;;;;;;4934282;29;20046;-83
2021/10/09 04:47:30;;;;;;;3.00;2.80;;;9.90;99.90;;;;;;4933319;29;20044;-80
2021/10/09 04:49:57;;;;;;;3.00;2.80;;;9.90;99.90;;;;;;4917435;29;20048;-82
2021/10/09 04:52:24;;;;;;;2.83;2.63;;;9.90;99.90;;;;;;4917112;29;20048;-82
2021/10/09 04:54:52;;;;;;;3.00;2.80;;;10.00;99.90;;;;;;4934363;29;20452;-81
2021/10/09 04:57:19;;;;;;;2.97;2.78;;;10.10;99.90;;;;;;4934041;29;20050;-82
2021/10/09 04:59:47;;;;;;;3.17;2.97;;;10.00;99.90;;;;;;4932518;29;20404;-81
2021/10/09 05:02:14;;;;;;;3.00;2.80;;;9.90;99.90;;;;;;4902099;29;20059;-81
2021/10/09 05:04:44;;;;;;;3.00;2.80;;;9.80;99.90;;;;;;4934910;29;20044;-83
2021/10/09 05:07:20;;;;;;;3.10;2.90;;;9.80;99.90;;;;;;4934162;29;20119;-83
2021/10/09 05:10:42;;;;;;;3.10;2.90;;;9.70;99.90;;;;;;4918142;29;20056;-82
2021/10/09 05:13:11;;;;;;;3.00;2.80;;;9.70;99.90;;;;;;4918075;29;20112;-81
2021/10/09 05:15:42;;;;;;;3.05;2.85;;;9.70;99.90;;;;;;4934653;29;20397;-81
2021/10/09 05:18:10;;;;;;;3.00;2.80;;;9.80;99.90;;;;;;4934653;29;20044;-81
2021/10/09 05:20:42;;;;;;;3.10;2.90;;;9.70;99.90;;;;;;4933934;29;20054;-82
2021/10/09 05:23:09;;;;;;;3.10;2.90;;;9.80;99.90;;;;;;4934071;29;20044;-81
2021/10/09 05:25:37;;;;;;;3.20;3.00;;;10.10;99.90;;;;;;4933636;29;20050;-82
2021/10/09 05:28:13;;;;;;;3.00;2.80;;;10.20;99.90;;;;;;4934454;29;20432;-82
2021/10/09 05:30:46;;;;;;;11.95;5.95;;;10.10;99.90;;;;;;4902334;29;20047;-81
2021/10/09 05:33:36;;;;;;;3.00;2.80;;;10.00;99.90;;;;;;4917315;29;20058;-83
2021/10/09 05:36:04;;;;;;;3.10;2.90;;;10.00;99.90;;;;;;4908786;29;20074;-83
2021/10/09 05:38:32;;;;;;;2.90;2.70;;;9.90;99.90;;;;;;4913906;29;20044;-82
2021/10/09 05:40:59;;;;;;;3.50;3.20;;;9.80;99.90;;;;;;4913439;29;20308;-83
2021/10/09 05:43:28;;;;;;;3.10;2.90;;;9.90;99.90;;;;;;4898240;29;20040;-83
2021/10/09 05:45:56;;;;;;;3.00;2.80;;;10.00;99.90;;;;;;4897766;29;20496;-83
2021/10/09 05:48:23;;;;;;;2.90;2.70;;;9.90;99.90;;;;;;4915185;29;20032;-82
2021/10/09 05:58:56;;;;;;;3.00;2.80;;;10.00;99.90;;;;;;4914299;29;20056;-83
2021/10/09 06:32:26;;;;;;;2.97;2.78;;;9.90;99.90;;;;;;4917364;29;20048;-85
2021/10/09 07:01:28;;;;;;;3.20;3.00;;;9.70;99.90;;;;;;4917048;29;20143;-85
2021/10/09 07:03:56;;;;;;;3.10;2.90;;;9.60;99.90;;;;;;4885513;29;20411;-85
2021/10/09 07:06:23;;;;;;;3.00;2.80;;;9.70;99.90;;;;;;4901526;29;20049;-83
2021/10/09 07:08:51;;;;;;;3.00;2.80;;;9.70;99.90;;;;;;4901080;29;20052;-85
2021/10/09 07:11:18;;;;;;;3.05;2.85;;;9.80;99.90;;;;;;4918120;29;20044;-86
2021/10/09 07:13:46;;;;;;;3.00;2.80;;;9.60;99.90;;;;;;4900537;29;20059;-86
2021/10/09 07:16:13;;;;;;;2.90;2.70;;;9.70;99.90;;;;;;4900445;29;20135;-85
2021/10/09 07:18:41;;;;;;;3.20;3.00;;;9.60;99.90;;;;;;4899827;29;20135;-86
2021/10/09 07:21:08;;;;;;;2.90;2.70;;;9.80;99.90;;;;;;4899918;29;20431;-85
2021/10/09 07:23:35;;;;;;;2.90;2.70;;;10.00;99.90;;;;;;4915987;29;20127;-83
2021/10/09 07:26:03;;;;;;;3.50;3.20;;;9.70;99.90;;;;;;4914645;29;20039;-84
2021/10/09 07:28:30;;;;;;;3.00;2.80;;;9.70;99.90;;;;;;4914675;29;20044;-83
2021/10/09 07:30:57;;;;;;;3.10;2.90;;;9.80;99.90;;;;;;4884335;29;20091;-86
2021/10/09 07:33:24;;;;;;;2.90;2.70;;;10.00;99.90;;;;;;4914720;29;20048;-86
2021/10/09 07:35:54;;;;;;;3.10;2.90;;;9.80;99.90;;;;;;4903051;29;20389;-84
2021/10/09 07:38:21;;;;;;;3.00;2.80;;;9.90;99.90;;;;;;4918702;29;20047;-86
2021/10/09 07:40:49;;;;;;;3.00;2.80;;;10.10;99.90;;;;;;4927582;29;20044;-80
2021/10/09 07:43:16;;;;;;;2.80;2.60;;;10.00;99.90;;;;;;4892501;29;20052;-80
2021/10/09 07:45:43;;;;;;;3.00;2.80;;;9.80;99.90;;;;;;4899993;29;20051;-83
2021/10/09 07:48:11;;;;;;;2.90;2.70;;;9.80;99.90;;;;;;4895106;29;20461;-85
2021/10/09 07:50:38;;;;;;;2.90;2.70;;;9.80;99.90;;;;;;4901015;29;20062;-84
2021/10/09 07:53:06;;;;;;;2.90;2.70;;;9.90;99.90;;;;;;4907565;29;20497;-82
2021/10/09 07:55:33;;;;;;;15.65;6.13;;;9.90;99.90;;;;;;4887882;29;20049;-82
2021/10/09 07:58:01;;;;;;;2.92;2.72;;;9.80;99.90;;;;;;4897947;29;20060;-82
2021/10/09 08:00:37;;;;;;;2.90;2.70;;;9.80;99.90;;;;;;4900186;29;20058;-82
2021/10/09 08:08:20;;;;;;;3.08;2.85;;;9.90;99.90;;;;;;4910288;29;20039;-82
2021/10/09 08:14:23;;;;;;;3.20;3.00;;;9.80;99.90;;;;;;5298707;23;20048;-82
2021/10/09 08:16:51;;;;;;;3.10;2.90;;;9.80;99.90;;;;;;4980990;23;20069;-81
2021/10/09 08:19:18;;;;;;;3.30;3.00;;;9.90;99.90;;;;;;4882904;29;20103;-81
2021/10/09 08:21:46;;;;;;;5.30;4.90;;;9.80;99.90;;;;;;4915726;29;20119;-81
2021/10/09 08:40:27;;;;;;;2.80;2.60;;;10.30;99.90;;;;;;4915644;29;20056;-86
2021/10/09 08:42:55;;;;;;;3.10;2.90;;;10.40;99.90;;;;;;4899931;29;20116;-93
2021/10/09 08:45:39;;;;;;;2.90;2.70;;;10.50;99.90;;;;;;4895249;29;20412;-88
2021/10/09 08:48:17;;;;;;;2.83;2.63;;;11.10;99.90;;;;;;4903348;29;20048;-86
2021/10/09 08:50:45;;;;;;;2.80;2.60;;;11.40;99.90;;;;;;4916402;29;20070;-85
2021/10/09 08:53:14;;;;;;;2.97;2.78;;;11.30;99.90;;;;;;4899446;29;20048;-82
2021/10/09 08:55:46;;;;;;;2.65;2.45;;;11.20;99.90;;;;;;4898913;29;20047;-85
2021/10/09 08:58:39;;;;;;;2.88;2.67;;;11.20;99.90;;;;;;4899657;29;20059;-88
2021/10/09 09:41:24;;;;;;;2.70;2.50;;;10.70;99.90;;;;;;4895184;29;20081;-83
2021/10/09 09:43:54;;;;;;;2.70;2.50;;;10.80;99.90;;;;;;4877919;29;20055;-83
2021/10/09 09:46:24;;;;;;;2.70;2.50;;;10.80;99.90;;;;;;4895654;29;20453;-83
2021/10/09 09:48:53;;;;;;;2.80;2.60;;;10.70;99.90;;;;;;4898811;29;20408;-83
2021/10/09 09:51:29;;;;;;;2.60;2.40;;;10.60;99.90;;;;;;4900282;29;20469;-84
2021/10/09 09:53:58;;;;;;;2.80;2.60;;;10.80;99.90;;;;;;4884254;29;20052;-85
2021/10/09 09:56:26;;;;;;;2.70;2.50;;;10.70;99.90;;;;;;4900684;29;20463;-86
2021/10/09 09:59:07;;;;;;;;;;;;;;;;;;;;;
2021/10/09 10:01:43;;;;;;;2.80;2.60;;;10.70;99.90;;;;;;4899908;29;20119;-84
2021/10/09 10:04:11;;;;;;;2.70;2.50;;;10.70;99.90;;;;;;4853023;29;20049;-80
2021/10/09 10:06:38;;;;;;;2.70;2.50;;;10.80;99.90;;;;;;4862274;29;20065;-82
2021/10/09 10:09:06;;;;;;;2.70;2.50;;;10.70;99.90;;;;;;4861733;29;20098;-82
2021/10/09 10:11:42;;;;;;;2.70;2.50;;;10.60;99.90;;;;;;4860967;29;20045;-88
2021/10/09 10:14:30;;;;;;;2.72;2.53;;;10.50;99.90;;;;;;4860788;29;20417;-86
2021/10/09 10:16:59;;;;;;;3.35;3.05;;;10.50;99.90;;;;;;4861667;29;20140;-83
2021/10/09 10:19:51;;;;;;;3.63;3.33;;;10.50;99.90;;;;;;4959875;23;20059;-84
2021/10/09 10:23:03;;;;;;;2.80;2.60;;;10.60;99.90;;;;;;4901446;29;20119;-88
2021/10/09 10:33:44;;;;;;;2.90;2.70;;;10.40;99.90;;;;;;4897960;29;20100;-90
2021/10/09 10:36:33;;;;;;;3.80;3.50;;;10.30;99.90;;;;;;4867800;29;20060;-88
2021/10/09 10:39:01;;;;;;;3.20;3.00;;;10.20;99.90;;;;;;4882483;29;20048;-88
2021/10/09 10:41:49;;;;;;;2.90;2.70;;;10.00;99.90;;;;;;4900024;29;20047;-89
2021/10/09 10:48:16;;;;;;;2.90;2.70;;;9.90;99.90;;;;;;4881698;29;20037;-88
2021/10/09 10:50:50;;;;;;;3.30;3.00;;;10.00;99.90;;;;;;4866622;29;20073;-90
2021/10/09 10:53:33;;;;;;;3.00;2.80;;;10.00;99.90;;;;;;4882917;29;20077;-90
2021/10/09 10:56:05;;;;;;;2.80;2.60;;;10.10;99.90;;;;;;4880741;29;20136;-87
2021/10/09 10:58:33;;;;;;;3.00;2.80;;;10.20;99.90;;;;;;4883200;29;20053;-96
2021/10/09 11:01:26;;;;;;;3.13;2.92;;;10.20;99.90;;;;;;4883691;29;20053;-88
2021/10/09 11:03:56;;;;;;;2.90;2.70;;;10.30;99.90;;;;;;4891062;29;20051;-92
2021/10/09 11:06:26;;;;;;;2.83;2.63;;;10.20;99.90;;;;;;4889251;29;20501;-88
2021/10/09 11:08:58;;;;;;;2.85;2.65;;;10.40;99.90;;;;;;4884216;29;20049;-93
2021/10/09 11:11:42;;;;;;;3.80;3.42;;;10.40;99.90;;;;;;4870085;29;20127;-87
2021/10/09 11:14:19;;;;;;;;;;;10.60;99.90;;;;;;4879525;29;20056;-88
2021/10/09 11:16:48;;;;;;;2.80;2.60;;;10.60;99.90;;;;;;4864056;29;20026;-87
2021/10/09 11:19:16;;;;;;;2.80;2.60;;;10.70;99.90;;;;;;4864217;29;20041;-85
2021/10/09 11:21:53;;;;;;;3.35;3.05;;;10.70;99.90;;;;;;4880322;29;20412;-86
2021/10/09 11:24:41;;;;;;;3.35;3.05;;;10.80;99.90;;;;;;4864077;29;20135;-85
2021/10/09 11:27:09;;;;;;;2.70;2.50;;;10.70;99.90;;;;;;4878581;29;20064;-86
2021/10/09 11:30:05;;;;;;;3.00;2.80;;;10.90;99.90;;;;;;4863606;29;20052;-83
2021/10/09 11:32:34;;;;;;;2.83;2.63;;;11.00;99.90;;;;;;4878070;29;20081;-85
2021/10/09 11:35:42;;;;;;;2.70;2.50;;;11.10;99.90;;;;;;4877963;29;20132;-85
2021/10/09 11:38:37;;;;;;;2.70;2.50;;;11.20;99.90;;;;;;4890815;29;20044;-83
2021/10/09 11:42:09;;;;;;;;;;;;;;;;;;;;;
2021/10/09 11:58:03;;;;;;;2.60;2.40;;;11.70;99.90;;;;;;4876937;29;20049;-83
2021/10/09 12:00:50;;;;;;;2.70;2.50;;;11.70;99.90;;;;;;4878135;29;20037;-84
2021/10/09 12:03:33;;;;;;;2.60;2.40;;;11.70;99.90;;;;;;4861671;29;20513;-86
2021/10/09 12:06:12;;;;;;;3.03;2.83;;;11.70;99.90;;;;;;4871363;29;20040;-84
2021/10/09 12:08:55;;;;;;;3.45;3.22;;;12.00;99.90;;;;;;4861749;29;20052;-86
2021/10/09 12:11:29;;;;;;;2.60;2.40;;;11.80;99.90;;;;;;4861187;29;20038;-82
2021/10/09 12:13:59;;;;;;;2.60;2.40;;;11.60;99.90;;;;;;4870289;29;20056;-83
2021/10/09 12:16:58;;;;;;;2.50;2.30;;;11.50;99.90;;;;;;4846808;29;20049;-84
2021/10/09 12:19:27;;;;;;;2.95;2.75;;;11.60;99.90;;;;;;4859315;29;20053;-86
2021/10/09 12:22:00;;;;;;;3.22;3.03;;;12.00;99.90;;;;;;4880261;29;20052;-83
2021/10/09 12:24:31;;;;;;;2.70;2.50;;;11.90;99.90;;;;;;4865392;29;20092;-82
2021/10/09 12:27:03;;;;;;;3.35;3.15;;;11.80;99.90;;;;;;4880557;29;20053;-81
2021/10/09 12:29:35;;;;;;;2.80;2.60;;;11.60;99.90;;;;;;4880318;29;20390;-82
2021/10/09 12:32:19;;;;;;;2.70;2.50;;;11.40;99.90;;;;;;4897367;29;20414;-82
2021/10/09 12:35:11;;;;;;;2.90;2.70;;;11.30;99.90;;;;;;4863995;29;20073;-81
2021/10/09 12:38:03;;;;;;;2.70;2.50;;;11.30;99.90;;;;;;4901411;29;20123;-81
2021/10/09 12:40:42;;;;;;;2.60;2.40;;;11.40;99.90;;;;;;4899126;29;20052;-81
2021/10/09 12:43:12;;;;;;;2.63;2.42;;;11.50;99.90;;;;;;4873002;29;20055;-79
2021/10/09 12:45:40;;;;;;;2.70;2.50;;;11.40;99.90;;;;;;4876356;29;20045;-81
2021/10/09 12:48:08;;;;;;;2.60;2.40;;;11.40;99.90;;;;;;4895991;29;20044;-81
2021/10/09 12:50:41;;;;;;;2.70;2.50;;;11.40;99.90;;;;;;4879673;29;20468;-80
2021/10/09 12:53:09;;;;;;;3.33;3.13;;;11.20;99.90;;;;;;4896023;29;20045;-82
2021/10/09 12:55:36;;;;;;;2.60;2.40;;;11.30;99.90;;;;;;4878797;29;20045;-84
2021/10/09 12:58:09;;;;;;;3.22;2.92;;;11.30;99.90;;;;;;4860479;29;20052;-80
2021/10/09 13:00:38;;;;;;;2.67;2.47;;;11.10;99.90;;;;;;4877315;29;20455;-80
2021/10/09 13:03:07;;;;;;;2.70;2.50;;;11.20;99.90;;;;;;4860370;29;20056;-80
2021/10/09 13:05:34;;;;;;;2.70;2.50;;;11.10;99.90;;;;;;4878072;29;20123;-81
2021/10/09 13:08:05;;;;;;;2.67;2.47;;;11.00;99.90;;;;;;4876586;29;20053;-80
2021/10/09 13:10:37;;;;;;;2.70;2.50;;;11.00;99.90;;;;;;4861019;29;20056;-81
2021/10/09 13:13:05;;;;;;;3.13;2.88;;;11.00;99.90;;;;;;4895071;29;20072;-81
2021/10/09 13:15:32;;;;;;;3.50;3.20;;;11.00;99.90;;;;;;4879701;29;20048;-80
2021/10/09 13:18:00;;;;;;;2.60;2.40;;;11.00;99.90;;;;;;4896060;29;20049;-80
2021/10/09 13:20:32;;;;;;;2.80;2.60;;;11.00;99.90;;;;;;4895842;29;20068;-80
2021/10/09 13:23:00;;;;;;;2.80;2.60;;;10.90;99.90;;;;;;4899230;29;20445;-79
2021/10/09 13:25:36;;;;;;;2.80;2.60;;;10.90;99.90;;;;;;4884665;29;20119;-80
2021/10/09 13:28:04;;;;;;;2.78;2.58;;;10.90;99.90;;;;;;4863720;29;20056;-79
2021/10/09 13:30:34;;;;;;;3.33;3.03;;;11.00;99.90;;;;;;4849550;29;20149;-79
2021/10/09 13:33:01;;;;;;;2.80;2.60;;;11.00;99.90;;;;;;4860550;29;20101;-79
2021/10/09 13:35:30;;;;;;;2.70;2.50;;;11.10;99.90;;;;;;4849283;29;20056;-79
2021/10/09 13:38:02;;;;;;;2.80;2.60;;;11.10;99.90;;;;;;4887087;29;20893;-80
2021/10/09 13:40:30;;;;;;;2.80;2.60;;;11.10;99.90;;;;;;4879129;29;20115;-79
2021/10/09 13:42:57;;;;;;;2.70;2.50;;;11.10;99.90;;;;;;4882092;29;20461;-78
2021/10/09 13:45:25;;;;;;;2.80;2.60;;;11.00;99.90;;;;;;4882412;29;20151;-78
2021/10/09 13:47:52;;;;;;;4.32;3.65;;;11.00;99.90;;;;;;4882652;29;20104;-79
2021/10/09 13:50:21;;;;;;;2.60;2.40;;;11.00;99.90;;;;;;4882605;29;20547;-80
2021/10/09 13:52:48;;;;;;;2.70;2.50;;;10.90;99.90;;;;;;4882901;29;20044;-81
2021/10/09 13:55:15;;;;;;;2.80;2.60;;;11.00;99.90;;;;;;4882072;29;20545;-83
2021/10/09 13:58:24;;;;;;;2.83;2.63;;;10.90;99.90;;;;;;4880700;29;20089;-80
2021/10/09 14:00:53;;;;;;;2.80;2.60;;;10.90;99.90;;;;;;4880452;29;20045;-79
2021/10/09 14:03:21;;;;;;;5.45;4.45;;;11.00;99.90;;;;;;4863828;29;20052;-82
2021/10/09 14:05:48;;;;;;;2.80;2.60;;;11.00;99.90;;;;;;4864028;29;20049;-83
2021/10/09 14:08:17;;;;;;;2.88;2.67;;;10.90;99.90;;;;;;4879114;29;20063;-81
2021/10/09 14:10:44;;;;;;;3.05;2.85;;;10.90;99.90;;;;;;4899690;29;20052;-82
2021/10/09 14:13:12;;;;;;;2.95;2.75;;;11.00;99.90;;;;;;4876165;29;20052;-83
2021/10/09 14:15:40;;;;;;;3.10;2.90;;;10.90;99.90;;;;;;4863818;29;20048;-82
2021/10/09 14:18:07;;;;;;;3.75;3.45;;;10.90;99.90;;;;;;4864068;29;20398;-82
2021/10/09 14:20:34;;;;;;;2.78;2.58;;;10.90;99.90;;;;;;4847998;29;20045;-80
2021/10/09 14:23:03;;;;;;;2.80;2.60;;;11.00;99.90;;;;;;4870272;29;20071;-80
2021/10/09 14:25:33;;;;;;;2.70;2.50;;;11.00;99.90;;;;;;4880951;29;20386;-84
2021/10/09 14:28:01;;;;;;;2.90;2.70;;;11.00;99.90;;;;;;4878412;29;20053;-81
2021/10/09 14:30:30;;;;;;;5.50;3.17;;;11.00;99.90;;;;;;4880046;29;20055;-81
2021/10/09 14:32:58;;;;;;;2.80;2.60;;;11.00;99.90;;;;;;4898084;29;20430;-80
2021/10/09 14:35:26;;;;;;;2.90;2.70;;;11.00;99.90;;;;;;4881561;29;20433;-84
2021/10/09 14:37:54;;;;;;;2.75;2.55;;;11.00;99.90;;;;;;4880903;29;20047;-80
2021/10/09 14:40:21;;;;;;;4.50;3.67;;;10.90;99.90;;;;;;4872045;29;20124;-77
2021/10/09 14:42:49;;;;;;;2.70;2.50;;;11.00;99.90;;;;;;4896498;29;20100;-82
2021/10/09 14:45:18;;;;;;;3.25;2.97;;;10.90;99.90;;;;;;4881818;29;20401;-80
2021/10/09 14:50:22;;;;;;;3.30;3.08;;;11.60;99.90;;;;;;4898271;29;20120;-79
2021/10/09 15:01:43;;;;;;;;;;;11.20;99.90;;;;;;4882069;29;20050;-82
2021/10/09 15:18:05;;;;;;;2.95;2.75;;;10.80;99.90;;;;;;4862227;29;20133;-80
2021/10/09 15:20:33;;;;;;;5.25;4.75;;;10.90;99.90;;;;;;4862283;29;20051;-80
2021/10/09 15:23:01;;;;;;;2.80;2.60;;;10.80;99.90;;;;;;4847015;29;20064;-84
2021/10/09 15:25:48;;;;;;;2.90;2.70;;;10.80;99.90;;;;;;4872864;29;20445;-81
2021/10/09 15:28:18;;;;;;;3.83;3.53;;;10.90;99.90;;;;;;4865638;29;20052;-83
2021/10/09 15:31:07;;;;;;;2.90;2.70;;;10.80;99.90;;;;;;4880999;29;20050;-82
2021/10/09 15:33:34;;;;;;;3.40;3.10;;;10.90;99.90;;;;;;4880898;29;20060;-84
2021/10/09 15:36:02;;;;;;;3.38;3.10;;;10.90;99.90;;;;;;4881166;29;20139;-89
2021/10/09 15:38:43;;;;;;;11.00;4.68;;;10.80;99.90;;;;;;4880270;29;20074;-96
2021/10/09 15:41:11;;;;;;;2.80;2.60;;;10.90;99.90;;;;;;4889665;29;20061;-86
2021/10/09 15:43:42;;;;;;;3.20;3.00;;;10.90;99.90;;;;;;4883369;29;20048;-90
2021/10/09 15:46:44;;;;;;;3.00;2.80;;;10.90;99.90;;;;;;4883575;29;20148;-89
2021/10/09 15:49:20;;;;;;;2.95;2.75;;;10.80;99.90;;;;;;4866117;29;20055;-83
2021/10/09 15:51:51;;;;;;;2.92;2.72;;;10.80;99.90;;;;;;4881561;29;20052;-88
2021/10/09 15:54:47;;;;;;;3.20;3.00;;;10.80;99.90;;;;;;4884605;29;20053;-92
2021/10/09 15:57:15;;;;;;;4.72;4.43;;;10.80;99.90;;;;;;4852606;29;20052;-90
2021/10/09 16:02:57;;;;;;;4.43;4.13;;;11.10;99.90;;;;;;4865455;29;20079;-87
2021/10/09 16:06:36;;;;;;;;;;;;;;;;;;;;;
2021/10/09 16:09:25;;;;;;;3.70;3.40;;;10.90;99.90;;;;;;4866638;29;20080;-95
2021/10/09 16:15:37;;;;;;;2.80;2.60;;;10.90;99.90;;;;;;4859184;29;20052;-85
2021/10/09 16:26:00;;;;;;;6.22;5.72;;;11.30;99.90;;;;;;4853510;29;20069;-85
2021/10/09 16:28:28;;;;;;;3.15;2.90;;;11.40;99.90;;;;;;4858368;29;20061;-84
2021/10/09 16:33:53;;;;;;;11.25;3.70;;;11.00;99.90;;;;;;4895226;29;20212;-84
2021/10/09 16:36:37;;;;;;;3.42;3.13;;;10.90;99.90;;;;;;4879202;29;20409;-89
2021/10/09 16:39:05;;;;;;;3.17;2.83;;;10.90;99.90;;;;;;4880058;29;20045;-85
2021/10/09 16:41:45;;;;;;;3.28;3.00;;;10.80;99.90;;;;;;4880248;29;20044;-88
2021/10/09 16:44:17;;;;;;;2.70;2.50;;;10.80;99.90;;;;;;4864913;29;20048;-88
2021/10/09 16:47:00;;;;;;;3.10;2.90;;;10.90;99.90;;;;;;4879939;29;20119;-88
2021/10/09 16:52:30;;;;;;;2.80;2.60;;;10.90;99.90;;;;;;5599050;23;20065;-90
2021/10/09 16:54:58;;;;;;;2.80;2.60;;;10.90;99.90;;;;;;4910874;29;20443;-87